Time;durP1;ratioP1;P1;durP2;ratioP2;P2;SDS_P1;SDS_P2;PMS_P1;PMS_P2;Temp;Humidity;BMP_temperature;BMP_pressure;BME280_temperature;BME280_humidity;BME280_pressure;Samples;Min_cycle;Max_cycle;Signal;HPM_P1;HPM_P2
2022/06/16 00:02:01;;;;;;;3.28;1.98;;;21.20;81.00;;;;;;5070564;28;20024;-71
2022/06/16 00:04:28;;;;;;;3.22;2.20;;;21.20;81.80;;;;;;5071232;28;20388;-70
2022/06/16 00:06:55;;;;;;;4.05;1.90;;;21.10;82.40;;;;;;5071455;28;20029;-70
2022/06/16 00:09:22;;;;;;;4.40;2.00;;;21.10;83.00;;;;;;5070886;28;20098;-70
2022/06/16 00:11:47;;;;;;;2.47;1.92;;;21.10;82.90;;;;;;5070214;28;20410;-70
2022/06/16 00:14:13;;;;;;;2.78;1.90;;;21.10;83.30;;;;;;5071320;28;20146;-71
2022/06/16 00:16:39;;;;;;;4.65;2.20;;;21.10;83.10;;;;;;5070288;28;20032;-70
2022/06/16 00:19:04;;;;;;;2.88;2.30;;;21.10;82.70;;;;;;5070823;28;20245;-70
2022/06/16 00:21:30;;;;;;;2.35;1.55;;;21.10;82.80;;;;;;5070873;28;20380;-70
2022/06/16 00:23:56;;;;;;;3.00;2.05;;;21.10;82.60;;;;;;5070496;28;20028;-70
2022/06/16 00:26:23;;;;;;;5.10;2.92;;;21.10;82.50;;;;;;5070888;28;20056;-71
2022/06/16 00:28:50;;;;;;;3.13;2.33;;;21.10;82.90;;;;;;5069932;28;20051;-70
2022/06/16 00:31:20;;;;;;;3.60;1.83;;;21.10;83.10;;;;;;5070858;28;20040;-71
2022/06/16 00:33:46;;;;;;;4.60;1.90;;;21.00;83.40;;;;;;5070165;28;20481;-70
2022/06/16 00:36:12;;;;;;;3.88;2.03;;;21.00;83.60;;;;;;5070862;28;20028;-71
2022/06/16 00:38:40;;;;;;;2.35;2.10;;;21.00;83.70;;;;;;5070835;28;20123;-70
2022/06/16 00:41:06;;;;;;;2.65;2.10;;;21.00;84.20;;;;;;5071261;28;20024;-71
2022/06/16 00:43:32;;;;;;;5.60;2.33;;;21.00;84.50;;;;;;5071562;28;20043;-71
2022/06/16 00:46:02;;;;;;;2.38;2.10;;;21.00;84.60;;;;;;5070562;28;20044;-71
2022/06/16 00:48:41;;;;;;;3.85;2.53;;;21.00;84.90;;;;;;5071387;28;20447;-71
2022/06/16 00:51:09;;;;;;;3.25;2.17;;;21.00;84.60;;;;;;5071652;28;20325;-71
2022/06/16 00:53:36;;;;;;;4.40;2.13;;;21.10;84.60;;;;;;5083115;28;20077;-70
2022/06/16 00:56:02;;;;;;;3.10;2.28;;;21.10;84.30;;;;;;5090929;28;20039;-70
2022/06/16 00:58:29;;;;;;;3.85;2.38;;;21.10;84.00;;;;;;5091501;28;20028;-71
2022/06/16 01:00:55;;;;;;;3.55;2.50;;;21.10;84.10;;;;;;5091057;28;20418;-70
2022/06/16 01:06:21;;;;;;;4.68;2.22;;;21.00;84.30;;;;;;5091716;28;20123;-70
2022/06/16 01:08:50;;;;;;;2.65;2.28;;;21.00;85.50;;;;;;5090953;28;20063;-70
2022/06/16 01:14:24;;;;;;;2.63;2.25;;;21.00;85.30;;;;;;5092858;28;20043;-71
2022/06/16 01:16:54;;;;;;;2.95;2.65;;;21.00;85.10;;;;;;5092738;28;20033;-70
2022/06/16 01:19:41;;;;;;;2.40;2.20;;;20.90;85.90;;;;;;5075425;28;20035;-71
2022/06/16 01:22:20;;;;;;;2.92;2.55;;;20.90;85.20;;;;;;5074762;28;20035;-71
2022/06/16 01:24:58;;;;;;;4.38;2.70;;;20.90;85.60;;;;;;5074259;28;20048;-70
2022/06/16 01:27:30;;;;;;;3.53;2.22;;;20.90;86.10;;;;;;5074807;28;20083;-71
2022/06/16 01:30:07;;;;;;;6.93;2.60;;;20.90;86.40;;;;;;5074215;28;20131;-71
2022/06/16 01:32:33;;;;;;;4.70;2.55;;;20.90;85.80;;;;;;5074683;28;20032;-70
2022/06/16 01:35:35;;;;;;;3.65;2.42;;;20.90;85.80;;;;;;5074225;28;20029;-71
2022/06/16 01:38:10;;;;;;;3.92;2.58;;;20.90;86.20;;;;;;5074204;28;20032;-70
2022/06/16 01:40:54;;;;;;;5.50;2.83;;;20.90;86.40;;;;;;5074514;28;20028;-70
2022/06/16 01:43:28;;;;;;;5.03;2.78;;;20.80;86.20;;;;;;5074142;28;20031;-71
2022/06/16 01:46:17;;;;;;;2.78;2.47;;;20.80;86.90;;;;;;5073526;28;20557;-70
2022/06/16 01:48:49;;;;;;;4.15;2.78;;;20.70;87.40;;;;;;5073837;28;20339;-70
2022/06/16 01:51:25;;;;;;;3.97;3.10;;;20.70;87.90;;;;;;5074305;28;20032;-71
2022/06/16 01:54:02;;;;;;;3.22;2.70;;;20.70;88.30;;;;;;5073516;28;20059;-70
2022/06/16 01:56:55;;;;;;;5.20;2.60;;;20.70;88.50;;;;;;5074332;28;20052;-71
2022/06/16 01:59:55;;;;;;;2.95;2.65;;;20.60;88.60;;;;;;5073804;28;20043;-71
2022/06/16 02:02:24;;;;;;;3.05;2.50;;;20.60;88.80;;;;;;5018434;28;20033;-71
2022/06/16 02:04:58;;;;;;;3.05;2.47;;;20.50;89.30;;;;;;5073577;28;20033;-70
2022/06/16 02:07:48;;;;;;;3.08;2.05;;;20.50;89.40;;;;;;5073769;28;20501;-70
2022/06/16 02:10:46;;;;;;;3.28;2.75;;;20.50;89.70;;;;;;5073796;28;20051;-70
2022/06/16 02:13:17;;;;;;;3.40;2.75;;;20.40;90.00;;;;;;5053878;28;20032;-72
2022/06/16 02:16:06;;;;;;;4.15;2.63;;;20.40;90.50;;;;;;5073300;28;20510;-70
2022/06/16 02:18:37;;;;;;;4.47;2.63;;;20.30;90.60;;;;;;5074220;28;20321;-70
2022/06/16 02:21:22;;;;;;;3.67;2.83;;;20.30;90.70;;;;;;5073208;28;20089;-70
2022/06/16 02:23:47;;;;;;;3.33;3.00;;;20.30;90.50;;;;;;5073277;28;20047;-70
2022/06/16 02:26:15;;;;;;;4.78;2.95;;;20.30;90.50;;;;;;5073110;28;20398;-71
2022/06/16 02:28:53;;;;;;;4.07;3.47;;;20.20;90.70;;;;;;5073655;28;20036;-71
2022/06/16 02:31:26;;;;;;;4.68;3.45;;;20.20;90.90;;;;;;5073254;28;20020;-70
2022/06/16 02:34:11;;;;;;;4.43;3.10;;;20.10;91.30;;;;;;5073001;28;20020;-70
2022/06/16 02:36:37;;;;;;;4.82;2.97;;;20.00;91.60;;;;;;5073545;28;20028;-71
2022/06/16 02:39:21;;;;;;;3.67;2.58;;;20.00;91.80;;;;;;5073004;28;20040;-70
2022/06/16 02:42:07;;;;;;;4.15;3.35;;;19.90;92.00;;;;;;5072593;28;20029;-70
2022/06/16 02:44:53;;;;;;;3.08;2.78;;;19.90;92.40;;;;;;5072994;28;20045;-70
2022/06/16 02:47:46;;;;;;;5.30;2.83;;;19.90;92.40;;;;;;5029103;28;20500;-70
2022/06/16 02:50:21;;;;;;;3.10;2.67;;;19.80;92.70;;;;;;5093233;28;20149;-72
2022/06/16 02:52:56;;;;;;;3.75;2.17;;;19.60;93.40;;;;;;5093088;28;20031;-70
2022/06/16 02:55:31;;;;;;;5.28;2.92;;;19.60;93.40;;;;;;5093164;28;20035;-71
2022/06/16 02:58:00;;;;;;;3.63;2.40;;;19.50;94.00;;;;;;5092787;28;20479;-69
2022/06/16 03:00:34;;;;;;;2.83;2.58;;;19.40;94.10;;;;;;5092806;28;20049;-71
2022/06/16 03:03:15;;;;;;;3.95;2.45;;;19.40;94.50;;;;;;5092723;28;20020;-70
2022/06/16 03:05:41;;;;;;;2.67;2.15;;;19.30;94.80;;;;;;5093124;28;20117;-70
2022/06/16 03:08:07;;;;;;;3.85;2.45;;;19.30;95.50;;;;;;5092548;28;20106;-70
2022/06/16 03:10:51;;;;;;;4.55;2.42;;;19.30;95.50;;;;;;5092855;28;20116;-71
2022/06/16 03:13:26;;;;;;;4.85;2.47;;;19.40;95.40;;;;;;5092441;28;20423;-72
2022/06/16 03:15:54;;;;;;;3.92;2.58;;;19.40;95.60;;;;;;5091642;28;20028;-70
2022/06/16 03:18:21;;;;;;;3.67;2.40;;;19.40;95.50;;;;;;5091794;28;20357;-70
2022/06/16 03:20:48;;;;;;;2.60;2.40;;;19.40;95.30;;;;;;5091627;28;20052;-70
2022/06/16 03:23:14;;;;;;;4.03;2.58;;;19.50;95.30;;;;;;5089892;28;20016;-70
2022/06/16 03:25:41;;;;;;;3.15;2.10;;;19.60;95.00;;;;;;5071626;28;20119;-70
2022/06/16 03:28:08;;;;;;;3.65;2.58;;;19.60;94.50;;;;;;5070888;28;20064;-70
2022/06/16 03:30:34;;;;;;;4.15;2.25;;;19.70;94.30;;;;;;5071672;28;20032;-70
2022/06/16 03:33:01;;;;;;;3.40;2.53;;;19.70;94.10;;;;;;5071792;28;20345;-70
2022/06/16 03:35:27;;;;;;;3.20;2.22;;;19.70;93.90;;;;;;5072279;28;20032;-70
2022/06/16 03:37:53;;;;;;;2.88;2.00;;;19.70;93.90;;;;;;5071592;28;20039;-69
2022/06/16 03:40:20;;;;;;;2.40;2.20;;;19.80;93.50;;;;;;5072138;28;20029;-70
2022/06/16 03:42:47;;;;;;;5.95;2.45;;;19.80;93.80;;;;;;5071503;28;20133;-70
2022/06/16 03:45:13;;;;;;;3.83;2.70;;;19.80;93.50;;;;;;5071849;28;20250;-70
2022/06/16 03:47:39;;;;;;;4.45;3.05;;;19.90;93.40;;;;;;5072035;28;20028;-70
2022/06/16 03:50:06;;;;;;;3.80;2.40;;;19.90;93.40;;;;;;5086733;28;20042;-70
2022/06/16 03:52:32;;;;;;;5.47;2.58;;;19.90;93.20;;;;;;5091631;28;20035;-71
2022/06/16 03:54:58;;;;;;;3.00;2.63;;;19.90;93.30;;;;;;5091130;28;20480;-71
2022/06/16 03:57:23;;;;;;;2.92;2.60;;;20.00;93.30;;;;;;5091185;28;20023;-71
2022/06/16 03:59:49;;;;;;;3.40;2.80;;;20.00;93.20;;;;;;5091263;28;20043;-71
2022/06/16 04:02:14;;;;;;;2.45;2.22;;;20.10;93.00;;;;;;5085993;28;20472;-71
2022/06/16 04:04:40;;;;;;;3.97;2.92;;;20.10;92.80;;;;;;5074062;28;20066;-71
2022/06/16 04:07:06;;;;;;;2.92;2.45;;;20.10;92.70;;;;;;5091686;28;20052;-70
2022/06/16 04:09:33;;;;;;;3.40;3.10;;;20.20;92.60;;;;;;5084821;28;20050;-71
2022/06/16 04:11:58;;;;;;;4.68;2.67;;;20.30;92.60;;;;;;5071091;28;20099;-70
2022/06/16 04:14:24;;;;;;;5.63;3.30;;;20.30;92.20;;;;;;5071327;28;20063;-70
2022/06/16 04:16:52;;;;;;;2.80;2.45;;;20.40;92.10;;;;;;5071084;28;20441;-70
2022/06/16 04:19:21;;;;;;;3.20;2.42;;;20.50;91.80;;;;;;5088698;28;20077;-72
2022/06/16 04:21:48;;;;;;;5.03;3.05;;;20.50;91.30;;;;;;5091889;28;20071;-72
2022/06/16 04:24:15;;;;;;;3.72;2.47;;;20.60;91.10;;;;;;5091629;28;20036;-71
2022/06/16 04:26:41;;;;;;;2.95;2.35;;;20.70;91.60;;;;;;5092040;28;20345;-71
2022/06/16 04:29:09;;;;;;;5.47;2.90;;;20.80;91.40;;;;;;5091239;28;20068;-70
2022/06/16 04:31:35;;;;;;;2.75;2.40;;;20.90;91.10;;;;;;5091790;28;20464;-70
2022/06/16 04:34:01;;;;;;;4.38;2.85;;;21.10;90.60;;;;;;5091400;28;20026;-70
2022/06/16 04:36:27;;;;;;;3.63;2.50;;;21.30;89.90;;;;;;5073651;28;20020;-71
2022/06/16 04:38:54;;;;;;;4.00;2.35;;;21.40;89.20;;;;;;5071153;28;20107;-70
2022/06/16 04:41:20;;;;;;;3.85;2.65;;;21.50;88.50;;;;;;5071590;28;20025;-70
2022/06/16 04:43:46;;;;;;;5.25;2.35;;;21.70;87.60;;;;;;5071207;28;20054;-71
2022/06/16 04:46:14;;;;;;;3.33;2.53;;;21.90;86.60;;;;;;5071168;28;20045;-70
2022/06/16 04:48:40;;;;;;;4.22;2.50;;;21.90;84.60;;;;;;5089560;28;20040;-71
2022/06/16 04:51:06;;;;;;;2.33;2.13;;;22.10;83.90;;;;;;5095381;28;20102;-70
2022/06/16 04:53:32;;;;;;;3.05;2.35;;;22.40;84.30;;;;;;5095718;28;20504;-70
2022/06/16 04:56:00;;;;;;;3.78;2.38;;;22.60;81.60;;;;;;5095004;28;20503;-70
2022/06/16 04:58:28;;;;;;;3.22;2.25;;;22.60;81.20;;;;;;5076797;28;20073;-71
2022/06/16 05:00:54;;;;;;;4.65;2.50;;;22.70;81.40;;;;;;5095369;28;20056;-70
2022/06/16 05:03:21;;;;;;;3.45;2.47;;;23.10;81.70;;;;;;5095511;28;20495;-71
2022/06/16 05:05:49;;;;;;;2.53;2.03;;;23.60;78.80;;;;;;5095435;28;20028;-71
2022/06/16 05:08:17;;;;;;;4.18;2.47;;;24.00;76.50;;;;;;5095069;28;20103;-70
2022/06/16 05:10:42;;;;;;;3.33;2.50;;;24.30;74.90;;;;;;5076312;28;20036;-70
2022/06/16 05:13:09;;;;;;;2.58;1.95;;;24.70;72.80;;;;;;5074716;28;20028;-70
2022/06/16 05:15:35;;;;;;;2.70;2.30;;;25.10;71.10;;;;;;5075157;28;20063;-71
2022/06/16 05:18:02;;;;;;;6.30;2.25;;;25.80;69.40;;;;;;5074627;28;20426;-70
2022/06/16 05:20:28;;;;;;;2.85;2.10;;;26.50;66.70;;;;;;5074631;28;20429;-71
2022/06/16 05:22:53;;;;;;;2.35;2.15;;;27.00;64.40;;;;;;5074316;28;20025;-70
2022/06/16 05:25:19;;;;;;;3.80;2.20;;;27.80;62.30;;;;;;5074847;28;20021;-70
2022/06/16 05:27:45;;;;;;;2.40;2.03;;;28.00;59.80;;;;;;5074829;28;20029;-71
2022/06/16 05:30:11;;;;;;;4.00;2.38;;;28.20;59.30;;;;;;5073985;28;20040;-70
2022/06/16 05:32:36;;;;;;;3.03;2.40;;;28.40;58.90;;;;;;5075402;28;20093;-70
2022/06/16 05:35:03;;;;;;;3.55;2.58;;;28.40;58.10;;;;;;5093939;28;20415;-71
2022/06/16 05:37:30;;;;;;;2.95;2.42;;;28.20;58.60;;;;;;5095081;28;20105;-70
2022/06/16 05:39:56;;;;;;;4.18;2.55;;;27.90;59.20;;;;;;5094000;28;20123;-70
2022/06/16 05:42:22;;;;;;;2.65;2.38;;;27.60;58.80;;;;;;5094844;28;20456;-70
2022/06/16 05:44:47;;;;;;;2.70;2.08;;;27.40;59.60;;;;;;5094687;28;20047;-70
2022/06/16 05:47:13;;;;;;;3.00;2.40;;;27.50;59.00;;;;;;5094408;28;20085;-70
2022/06/16 05:49:40;;;;;;;2.60;2.03;;;27.70;58.60;;;;;;5095055;28;20345;-69
2022/06/16 05:52:11;;;;;;;3.42;2.28;;;28.50;58.00;;;;;;5094111;28;20036;-71
2022/06/16 05:54:37;;;;;;;3.72;1.98;;;30.10;55.30;;;;;;5093956;28;20039;-71
2022/06/16 05:57:04;;;;;;;3.60;2.00;;;31.80;52.20;;;;;;5093962;28;20024;-71
2022/06/16 05:59:30;;;;;;;2.38;2.17;;;33.00;47.70;;;;;;5094112;28;20464;-71
2022/06/16 06:01:55;;;;;;;2.20;1.70;;;33.90;46.00;;;;;;5093046;28;20049;-71
2022/06/16 06:04:22;;;;;;;2.03;1.83;;;34.80;43.90;;;;;;5093800;28;20032;-71
2022/06/16 06:06:48;;;;;;;2.63;1.88;;;35.30;42.90;;;;;;5094030;28;20028;-71
2022/06/16 06:17:26;;;;;;;1.92;1.70;;;36.80;38.70;;;;;;5073650;28;20031;-71
2022/06/16 06:19:52;;;;;;;2.30;2.10;;;36.90;38.80;;;;;;5073659;28;20037;-72
2022/06/16 06:22:19;;;;;;;2.22;1.92;;;36.70;38.00;;;;;;5073079;28;20111;-71
2022/06/16 06:24:48;;;;;;;2.45;1.73;;;36.80;38.90;;;;;;5073595;28;20029;-71
2022/06/16 06:27:14;;;;;;;2.72;1.88;;;36.80;38.30;;;;;;5073076;28;20040;-71
2022/06/16 06:29:41;;;;;;;2.15;1.77;;;36.80;37.80;;;;;;5073072;28;20421;-72
2022/06/16 06:32:07;;;;;;;2.35;2.13;;;36.50;38.30;;;;;;5072890;28;20020;-72
2022/06/16 06:34:33;;;;;;;2.00;1.70;;;36.30;38.10;;;;;;5072613;28;20100;-71
2022/06/16 06:36:59;;;;;;;1.70;1.55;;;36.30;38.00;;;;;;5072932;28;20123;-72
2022/06/16 06:39:24;;;;;;;2.60;1.85;;;36.60;38.60;;;;;;5073294;28;20111;-71
2022/06/16 06:41:50;;;;;;;1.60;1.50;;;36.60;38.00;;;;;;5073278;28;20028;-71
2022/06/16 06:44:15;;;;;;;2.85;1.67;;;36.70;37.80;;;;;;5076922;28;20058;-72
2022/06/16 06:46:41;;;;;;;1.52;1.42;;;36.60;37.20;;;;;;5093337;28;20052;-71
2022/06/16 06:49:08;;;;;;;1.75;1.65;;;36.60;37.50;;;;;;5092388;28;20115;-71
2022/06/16 06:51:33;;;;;;;2.30;1.70;;;36.70;37.30;;;;;;5093134;28;20043;-71
2022/06/16 06:54:00;;;;;;;2.25;1.70;;;36.70;38.00;;;;;;5093373;28;20032;-71
2022/06/16 06:56:27;;;;;;;2.65;2.00;;;36.80;37.60;;;;;;5093061;28;20036;-71
2022/06/16 06:58:54;;;;;;;2.75;1.83;;;36.50;37.10;;;;;;5093185;28;20036;-71
2022/06/16 07:01:20;;;;;;;2.88;1.60;;;36.30;37.60;;;;;;5092869;28;20020;-71
2022/06/16 07:03:47;;;;;;;2.58;2.00;;;36.00;37.50;;;;;;5093000;28;20479;-71
2022/06/16 07:06:12;;;;;;;3.75;2.08;;;35.70;37.90;;;;;;5092667;28;20051;-71
2022/06/16 07:08:38;;;;;;;3.15;1.75;;;35.50;39.00;;;;;;5092821;28;20430;-71
2022/06/16 07:11:04;;;;;;;2.35;1.90;;;35.40;38.80;;;;;;5092509;28;20020;-70
2022/06/16 07:13:29;;;;;;;1.48;1.38;;;35.50;39.10;;;;;;5092633;28;20302;-71
2022/06/16 07:15:55;;;;;;;3.17;2.00;;;35.50;39.20;;;;;;5092838;28;20028;-72
2022/06/16 07:18:21;;;;;;;2.25;1.90;;;35.80;39.10;;;;;;5092531;28;20031;-71
2022/06/16 07:20:50;;;;;;;2.60;1.83;;;36.00;38.10;;;;;;5074606;28;20050;-71
2022/06/16 07:23:18;;;;;;;2.30;1.87;;;36.00;39.70;;;;;;5092459;28;20119;-71
2022/06/16 07:25:48;;;;;;;2.72;1.83;;;36.60;39.70;;;;;;5092530;28;20253;-71
2022/06/16 07:28:14;;;;;;;2.57;1.70;;;37.20;39.00;;;;;;5092124;28;20037;-72
2022/06/16 07:30:40;;;;;;;2.17;1.70;;;37.70;37.80;;;;;;5092323;28;20107;-72
2022/06/16 07:33:06;;;;;;;3.00;1.73;;;38.00;37.90;;;;;;5092047;28;20032;-71
2022/06/16 07:35:33;;;;;;;2.60;2.00;;;38.50;37.80;;;;;;5077924;28;20060;-71
2022/06/16 07:37:59;;;;;;;2.58;2.33;;;38.60;37.30;;;;;;5072244;28;20028;-72
2022/06/16 07:40:24;;;;;;;3.30;1.92;;;38.30;36.60;;;;;;5071903;28;20059;-71
2022/06/16 07:42:56;;;;;;;6.20;2.00;;;38.60;36.30;;;;;;5072506;28;20111;-72
2022/06/16 07:45:23;;;;;;;2.10;1.77;;;39.00;36.60;;;;;;5071445;28;20095;-71
2022/06/16 07:47:50;;;;;;;2.75;1.65;;;39.20;35.90;;;;;;5072491;28;20029;-71
2022/06/16 07:50:18;;;;;;;3.92;1.65;;;39.50;35.70;;;;;;5071474;28;20045;-71
2022/06/16 07:52:43;;;;;;;2.20;1.90;;;39.60;35.60;;;;;;5072050;28;20135;-71
2022/06/16 07:55:11;;;;;;;5.47;1.92;;;39.70;35.10;;;;;;5071365;28;20047;-71
2022/06/16 07:57:48;;;;;;;2.10;1.67;;;39.70;35.30;;;;;;5072177;28;20050;-71
2022/06/16 08:00:23;;;;;;;2.33;1.90;;;39.80;35.10;;;;;;5071706;28;20437;-72
2022/06/16 08:02:48;;;;;;;2.13;1.63;;;39.90;34.70;;;;;;5071752;28;20104;-72
2022/06/16 08:05:14;;;;;;;2.13;1.30;;;40.00;35.00;;;;;;5071428;28;20107;-71
2022/06/16 08:07:41;;;;;;;1.55;1.38;;;39.90;35.10;;;;;;5071724;28;20484;-72
2022/06/16 08:10:11;;;;;;;2.85;1.70;;;39.80;35.20;;;;;;5071170;28;20338;-71
2022/06/16 08:12:37;;;;;;;2.75;1.95;;;39.60;35.10;;;;;;5071514;28;20488;-73
2022/06/16 08:15:03;;;;;;;1.85;1.30;;;39.20;35.00;;;;;;5071976;28;20064;-72
2022/06/16 08:17:32;;;;;;;1.85;1.55;;;38.80;36.20;;;;;;5071212;28;20021;-72
2022/06/16 08:19:58;;;;;;;2.47;1.60;;;38.30;37.20;;;;;;5072011;28;20078;-71
2022/06/16 08:22:25;;;;;;;2.53;1.90;;;37.90;36.70;;;;;;5071447;28;20020;-71
2022/06/16 08:24:51;;;;;;;3.88;1.52;;;37.20;36.60;;;;;;5071236;28;20115;-72
2022/06/16 08:27:20;;;;;;;3.65;1.95;;;36.00;39.10;;;;;;5071472;28;20448;-71
2022/06/16 08:29:46;;;;;;;3.30;1.85;;;35.20;40.30;;;;;;5071810;28;20401;-71
2022/06/16 08:32:15;;;;;;;3.05;1.92;;;34.40;42.10;;;;;;5071389;28;20100;-71
2022/06/16 08:34:41;;;;;;;2.42;1.73;;;33.60;43.10;;;;;;5071561;28;20417;-71
2022/06/16 08:37:06;;;;;;;2.08;1.75;;;32.60;43.80;;;;;;5084295;28;20068;-71
2022/06/16 08:39:33;;;;;;;4.22;2.05;;;32.00;45.80;;;;;;5091371;28;20028;-71
2022/06/16 08:42:15;;;;;;;2.33;1.90;;;31.50;45.90;;;;;;5091711;28;20024;-72
2022/06/16 08:44:49;;;;;;;2.80;2.00;;;31.10;47.20;;;;;;5091575;28;20028;-70
2022/06/16 08:47:41;;;;;;;3.05;1.77;;;30.80;48.10;;;;;;5091548;28;20028;-70
2022/06/16 08:50:23;;;;;;;2.33;1.50;;;30.70;49.00;;;;;;5091709;28;20054;-71
2022/06/16 08:53:17;;;;;;;2.80;1.80;;;30.40;48.10;;;;;;5091171;28;20069;-71
2022/06/16 08:56:33;;;;;;;2.55;1.75;;;30.10;48.70;;;;;;5091626;28;20035;-71
2022/06/16 08:59:05;;;;;;;1.65;1.55;;;29.90;48.90;;;;;;4989584;28;20030;-71
2022/06/16 09:01:48;;;;;;;2.05;1.80;;;29.80;48.90;;;;;;4989433;28;20041;-71
2022/06/16 09:04:32;;;;;;;4.00;1.63;;;29.50;49.30;;;;;;4989571;28;20443;-71
2022/06/16 09:07:05;;;;;;;2.20;1.63;;;29.30;50.70;;;;;;4989710;28;20042;-72
2022/06/16 09:12:55;;;;;;;2.75;1.85;;;28.90;51.10;;;;;;4989341;28;20038;-73
2022/06/16 09:15:35;;;;;;;2.60;1.58;;;28.80;52.20;;;;;;4989523;28;20026;-72
2022/06/16 09:18:26;;;;;;;2.78;1.90;;;28.80;51.80;;;;;;4989845;28;20039;-72
2022/06/16 09:21:04;;;;;;;2.45;1.80;;;28.80;52.40;;;;;;4971656;28;20039;-72
2022/06/16 09:23:48;;;;;;;3.00;2.20;;;28.80;52.30;;;;;;4989167;28;20038;-73
2022/06/16 09:26:31;;;;;;;2.50;1.80;;;28.90;52.80;;;;;;4989158;28;20137;-72
2022/06/16 09:29:26;;;;;;;3.22;2.15;;;28.80;52.30;;;;;;5007421;28;20044;-72
2022/06/16 09:32:10;;;;;;;2.58;1.88;;;28.70;53.10;;;;;;5091512;28;20467;-72
2022/06/16 09:35:02;;;;;;;2.15;1.83;;;28.70;53.30;;;;;;5091494;28;20028;-72
2022/06/16 09:38:08;;;;;;;3.05;1.75;;;28.70;54.10;;;;;;5085768;28;20048;-71
2022/06/16 09:40:45;;;;;;;6.13;2.00;;;28.70;53.80;;;;;;5011528;28;20542;-71
2022/06/16 09:43:17;;;;;;;1.83;1.60;;;28.70;53.40;;;;;;5079904;28;20120;-72
2022/06/16 09:45:56;;;;;;;2.17;1.95;;;28.60;54.20;;;;;;5091601;28;20047;-71
2022/06/16 09:48:25;;;;;;;1.58;1.48;;;28.60;54.70;;;;;;5094563;28;20111;-71
2022/06/16 09:51:00;;;;;;;3.03;2.03;;;28.60;54.10;;;;;;5091629;28;20031;-70
2022/06/16 09:53:50;;;;;;;3.42;1.92;;;28.60;53.20;;;;;;5092727;28;20020;-69
2022/06/16 09:56:22;;;;;;;1.80;1.63;;;28.60;53.80;;;;;;5091046;28;20562;-71
2022/06/16 09:58:52;;;;;;;2.05;1.70;;;28.50;54.30;;;;;;5090833;28;20035;-71
2022/06/16 10:01:21;;;;;;;2.22;1.92;;;28.60;54.20;;;;;;5093774;28;20020;-71
2022/06/16 10:03:56;;;;;;;2.17;1.77;;;28.50;53.80;;;;;;5074896;28;20031;-71
2022/06/16 10:06:29;;;;;;;2.47;1.80;;;28.50;53.60;;;;;;5092905;28;20027;-73
2022/06/16 10:09:01;;;;;;;2.03;1.65;;;28.50;53.60;;;;;;5093478;28;20052;-71
2022/06/16 10:11:51;;;;;;;6.97;2.00;;;28.50;53.50;;;;;;5089811;28;20028;-72
2022/06/16 10:14:30;;;;;;;1.83;1.60;;;28.60;54.20;;;;;;5091917;28;20150;-71
2022/06/16 10:16:59;;;;;;;2.55;1.55;;;28.60;54.50;;;;;;5090209;28;20605;-72
2022/06/16 10:19:30;;;;;;;2.33;1.60;;;28.50;52.30;;;;;;5092052;28;20519;-71
2022/06/16 10:21:56;;;;;;;2.30;1.92;;;28.40;53.70;;;;;;5092798;28;20069;-71
2022/06/16 10:24:25;;;;;;;2.38;1.90;;;28.40;53.80;;;;;;5092139;28;20099;-71
2022/06/16 10:26:52;;;;;;;2.90;2.13;;;28.40;54.20;;;;;;5092349;28;20028;-72
2022/06/16 10:29:27;;;;;;;2.45;1.73;;;28.40;55.10;;;;;;5092049;28;20035;-71
2022/06/16 10:31:54;;;;;;;2.38;1.65;;;28.50;54.90;;;;;;5090567;28;20027;-72
2022/06/16 10:34:41;;;;;;;2.20;1.80;;;28.50;53.20;;;;;;5091875;28;20024;-71
2022/06/16 10:37:17;;;;;;;2.38;2.17;;;28.50;53.80;;;;;;5073425;28;20040;-72
2022/06/16 10:39:54;;;;;;;1.95;1.65;;;28.40;53.70;;;;;;5087468;28;20031;-72
2022/06/16 10:42:29;;;;;;;2.35;1.70;;;28.50;53.80;;;;;;5092001;28;20016;-71
2022/06/16 10:45:25;;;;;;;1.80;1.60;;;28.60;54.50;;;;;;5092021;28;20044;-72
2022/06/16 10:47:53;;;;;;;2.17;1.80;;;28.60;53.90;;;;;;5089804;28;20369;-72
2022/06/16 10:50:43;;;;;;;4.50;1.70;;;28.60;53.90;;;;;;5091659;28;20106;-71
2022/06/16 10:53:21;;;;;;;5.20;1.85;;;28.70;53.50;;;;;;5093154;28;20024;-71
2022/06/16 10:55:49;;;;;;;2.72;2.17;;;28.60;53.60;;;;;;5093131;28;20024;-71
2022/06/16 10:58:27;;;;;;;2.80;2.20;;;28.50;53.50;;;;;;5092023;28;20031;-72
2022/06/16 11:01:21;;;;;;;2.60;1.98;;;28.60;54.00;;;;;;5090671;28;20028;-71
2022/06/16 11:03:53;;;;;;;1.60;1.50;;;28.60;53.30;;;;;;5089682;28;20032;-72
2022/06/16 11:06:22;;;;;;;2.60;1.85;;;28.60;53.10;;;;;;5091187;28;20093;-71
2022/06/16 11:08:51;;;;;;;4.82;1.90;;;28.60;52.50;;;;;;5091362;28;20038;-73
2022/06/16 11:11:42;;;;;;;3.50;1.85;;;28.50;53.00;;;;;;5091132;28;20105;-70
2022/06/16 11:14:33;;;;;;;1.90;1.70;;;28.50;53.30;;;;;;5088630;28;20420;-72
2022/06/16 11:17:01;;;;;;;2.60;1.92;;;28.50;53.00;;;;;;5081093;28;20101;-71
2022/06/16 11:19:33;;;;;;;2.83;1.70;;;28.50;52.60;;;;;;5092014;28;20384;-71
2022/06/16 11:22:04;;;;;;;1.50;1.40;;;28.40;52.70;;;;;;5086291;28;20103;-72
2022/06/16 11:24:33;;;;;;;9.70;2.10;;;28.40;51.40;;;;;;5076593;28;20025;-72
2022/06/16 11:27:17;;;;;;;2.17;1.77;;;28.40;51.80;;;;;;5089775;28;20032;-72
2022/06/16 11:29:43;;;;;;;1.88;1.73;;;28.50;52.30;;;;;;5086320;28;20473;-72
2022/06/16 11:32:14;;;;;;;2.75;1.92;;;28.50;52.10;;;;;;5072190;28;20024;-72
2022/06/16 11:34:42;;;;;;;2.08;1.88;;;28.50;50.90;;;;;;5071122;28;20029;-72
2022/06/16 11:37:07;;;;;;;5.93;1.77;;;28.60;51.50;;;;;;5071870;28;20035;-72
2022/06/16 11:40:01;;;;;;;2.13;1.60;;;28.60;51.50;;;;;;5087810;28;20032;-71
2022/06/16 11:42:47;;;;;;;2.75;1.70;;;28.60;51.10;;;;;;5091742;28;20086;-71
2022/06/16 11:45:12;;;;;;;2.38;1.98;;;28.70;51.10;;;;;;5092011;28;20048;-71
2022/06/16 11:47:57;;;;;;;2.03;1.83;;;28.70;50.80;;;;;;5092077;28;20111;-72
2022/06/16 11:50:32;;;;;;;2.88;2.00;;;28.70;50.50;;;;;;5087908;28;20032;-71
2022/06/16 11:53:09;;;;;;;1.52;1.42;;;28.70;51.20;;;;;;5091856;28;20078;-72
2022/06/16 11:55:44;;;;;;;1.85;1.60;;;28.70;51.60;;;;;;5083512;28;20380;-71
2022/06/16 11:58:24;;;;;;;3.10;1.88;;;28.70;51.40;;;;;;5072053;28;20032;-71
2022/06/16 12:01:08;;;;;;;;;;;28.60;51.50;;;;;;5072057;28;20033;-72
2022/06/16 12:03:46;;;;;;;2.45;2.10;;;28.60;52.10;;;;;;5071147;28;19905;-72
2022/06/16 12:06:41;;;;;;;2.65;2.00;;;28.50;52.20;;;;;;5071792;28;20550;-71
2022/06/16 12:09:07;;;;;;;3.15;1.60;;;28.30;51.80;;;;;;5071545;28;20123;-75
2022/06/16 12:11:51;;;;;;;2.25;1.95;;;28.20;51.40;;;;;;5071220;28;20059;-70
2022/06/16 12:14:50;;;;;;;2.15;1.73;;;28.20;51.60;;;;;;5071700;28;20021;-71
2022/06/16 12:17:18;;;;;;;2.22;1.63;;;28.20;51.40;;;;;;5066040;28;20048;-72
2022/06/16 12:20:12;;;;;;;2.28;2.00;;;28.10;50.10;;;;;;5071069;28;20039;-71
2022/06/16 12:22:58;;;;;;;2.40;1.88;;;28.10;50.90;;;;;;5071387;28;20025;-72
2022/06/16 12:25:35;;;;;;;2.53;1.95;;;28.20;52.00;;;;;;5070932;28;20520;-73
2022/06/16 12:28:06;;;;;;;4.28;1.98;;;28.20;53.00;;;;;;5080983;28;20383;-72
2022/06/16 12:30:42;;;;;;;2.38;1.65;;;28.10;52.60;;;;;;5091296;28;20482;-80
2022/06/16 12:33:23;;;;;;;3.00;2.03;;;28.10;52.40;;;;;;5091794;28;20071;-69
2022/06/16 12:36:15;;;;;;;3.30;2.08;;;28.10;52.50;;;;;;5092077;28;20032;-69
2022/06/16 12:39:20;;;;;;;2.22;1.73;;;28.10;52.70;;;;;;5077329;28;20040;-70
2022/06/16 12:41:50;;;;;;;2.03;1.80;;;28.20;52.60;;;;;;5091620;28;20484;-71
2022/06/16 12:44:24;;;;;;;1.95;1.77;;;28.20;51.20;;;;;;5091483;28;20032;-72
2022/06/16 12:47:20;;;;;;;1.60;1.50;;;28.10;50.50;;;;;;5087752;28;20527;-74
2022/06/16 12:49:52;;;;;;;2.25;1.25;;;28.10;49.20;;;;;;5090199;28;20048;-74
2022/06/16 12:52:25;;;;;;;2.72;1.83;;;28.10;48.10;;;;;;5090469;28;20031;-75
2022/06/16 12:54:54;;;;;;;2.15;1.95;;;28.10;47.60;;;;;;5091160;28;20028;-74
2022/06/16 12:57:28;;;;;;;2.13;1.90;;;28.10;50.80;;;;;;5083170;28;20526;-73
2022/06/16 12:59:59;;;;;;;2.70;1.70;;;28.20;51.10;;;;;;5079009;28;20028;-73
2022/06/16 13:02:31;;;;;;;2.53;1.73;;;28.10;51.30;;;;;;5071014;28;20033;-72
2022/06/16 13:05:00;;;;;;;1.70;1.60;;;28.20;49.70;;;;;;5071031;28;20078;-73
2022/06/16 13:07:29;;;;;;;2.22;1.65;;;28.10;49.30;;;;;;5086731;28;20106;-72
2022/06/16 13:09:55;;;;;;;2.22;1.67;;;28.10;49.50;;;;;;5092440;28;20043;-74
2022/06/16 13:12:29;;;;;;;6.78;1.80;;;28.20;50.00;;;;;;5095362;28;20104;-73
2022/06/16 13:15:00;;;;;;;4.00;2.10;;;28.10;49.80;;;;;;5095046;28;20134;-71
2022/06/16 13:17:32;;;;;;;1.88;1.67;;;28.10;50.70;;;;;;5094553;28;20500;-71
2022/06/16 13:20:02;;;;;;;2.20;1.70;;;28.20;48.60;;;;;;5095432;28;20024;-72
2022/06/16 13:22:40;;;;;;;2.55;2.05;;;28.20;48.00;;;;;;5094941;28;20031;-71
2022/06/16 13:25:10;;;;;;;1.92;1.58;;;28.20;49.10;;;;;;5094880;28;20032;-71
2022/06/16 13:27:38;;;;;;;2.58;1.70;;;28.10;49.20;;;;;;5094655;28;20031;-71
2022/06/16 13:30:09;;;;;;;2.70;1.92;;;28.20;50.50;;;;;;5094571;28;20040;-71
2022/06/16 13:32:50;;;;;;;2.00;1.70;;;28.20;50.20;;;;;;5094549;28;20298;-74